Houston, TX

7:52 PM CDT on April 01, 2015 (GMT -0500)
Hobby | | Change Station
CLOSE
Current Station
Airport
Location: Houston,
Elevation: 46 ft
Nearby Weather Stations

Elev 46 ft 29.64 °N, 95.28 °W | Updated 59 minutes ago

Mostly Cloudy
Mostly Cloudy
74 °F
Feels Like 74 °F
N
7
Wind Variable Wind from SSE

Today
High -- | Low -- °F
--% Chance of Precip.
Yesterday
High -- | Low -- °F
Precip. -- in
7:10 AM 7:39 PM
Waxing Gibbous, 95% visible
Pressure 29.94 in
Visibility 10.0 miles
Clouds Scattered Clouds 1800 ft
Scattered Clouds 12000 ft
Mostly Cloudy 25000 ft
Dew Point 67 °F
Humidity 79%
Rainfall 0.01 in
Snow Depth Not available.
UV 0 out of 12
Pollen 9.00 out of 12
Air Quality Not available.
Flu Activity Not available.
METAR KHOU 012353Z 16006KT 10SM SCT018 SCT120 BKN250 23/19 A2992 RMK AO2 SLP137 60001 T02330194 10261 20233 55003

More Conditions Fewer Conditions

Pressure 29.94 in
Visibility 10.0 miles
Clouds Scattered Clouds 1800 ft
Scattered Clouds 12000 ft
Mostly Cloudy 25000 ft
Dew Point 67 °F
Humidity 79%
Rainfall 0.01 in
Snow Depth Not available.
UV 0 out of 12
Pollen 9.00 out of 12
Air Quality Not available.
Flu Activity Not available.
METAR KHOU 012353Z 16006KT 10SM SCT018 SCT120 BKN250 23/19 A2992 RMK AO2 SLP137 60001 T02330194 10261 20233 55003

More Conditions Fewer Conditions

10-Day Weather Forecast

Almanac

Astronomy

Apr. 01, 2015 Rise Set
Actual Time
Civil Twilight
Nautical Twilight
Astronomical Twilight
Moon
Length of Visible Light
Length of Day
Tomorrow will be .
, % of the Moon is Illuminated

Today's Extremes

State Highs State Lows

Community

WunderPhotos

Upload Photos

1,810,136 photos uploaded!

WunderBlogs® & News

Nearby

Air Quality

  Air Quality AQ Index Pollutant
Not available.

Snow Depth

Station Depth Elevation

Earthquake Activity

City Distance Mag. Time & Date
Minimum magnitude displayed is 2.5.

Coastal Water Temperatures

Place Temperature

Stations

Nearby Weather Stations

Station Location Temp. Windchill Dew Point Humidity Wind Precip. Elev Updated Type